Terminal Aerodrome Forecast
Issued by NWS

Home | Current Version | Previous Version | Text Only | Print | Product List | Glossary On
Versions: 1 2 3 4 5 6 7 8 9 10 11 12 13
000
FTUS43 KOAX 251139
TAFCDR
TAF
KCDR 251139Z 2512/2612 25006KT P6SM SCT150
     FM252200 14010KT P6SM -TSRA BKN050CB
     FM260300 16012KT P6SM VCSH SCT018 BKN030
     FM260600 16013KT 3SM BR OVC015=

USA.gov is the U.S. government's official web portal to all federal, state and local government web resources and services.